METAR Data
IDs: Format: Raw Decoded Include TAF

Data at: 0834 UTC 20 Sep 2018

PAPH 200802Z AUTO 30010KT 10SM BKN012 BKN020 OVC048 10/08 A3035 RMK AO2
PAPH 200756Z AUTO 30009KT 10SM SCT012 SCT019 OVC048 10/08 A3036 RMK AO2 SLP283 T01000078 401220083
PAPH 200656Z AUTO 30009KT 10SM FEW014 BKN030 OVC048 10/08 A3036 RMK AO2 SLP285 T01000078
PAPH 200556Z AUTO 31008KT 10SM SCT015 BKN034 OVC048 10/08 A3036 RMK AO2 SLP285 T01000078 10117 20100 58002
PAPH 200530Z AUTO 30009KT 10SM BKN015 BKN020 OVC035 10/08 A3037 RMK AO2
PAPH 200456Z AUTO 30011KT 10SM FEW015 BKN032 OVC040 10/08 A3037 RMK AO2 SLP287 T01000078
PAPH 200356Z AUTO 30010KT 10SM SCT015 OVC036 11/07 A3037 RMK AO2 SLP288 T01060072
PAPH 200256Z AUTO 30012KT 10SM OVC036 11/07 A3037 RMK AO2 SLP287 T01060067 56006
PAPH 200156Z AUTO 30012KT 10SM OVC034 11/06 A3038 RMK AO2 SLP290 T01110061
PAPH 200056Z AUTO 31009KT 10SM OVC036 12/07 A3037 RMK AO2 SLP289 T01170067
PAPH 200039Z AUTO 31010KT 10SM SCT018 OVC036 11/07 A3038 RMK AO2
PAPH 192356Z AUTO 30013KT 10SM BKN019 OVC042 12/07 A3039 RMK AO2 SLP293 T01170072 10122 20106 53001
PAPH 192342Z AUTO 30011KT 10SM BKN017 OVC042 12/07 A3039 RMK AO2
PAPH 192308Z AUTO 31012KT 10SM FEW017 BKN032 OVC040 12/08 A3038 RMK AO2
PAPH 192256Z AUTO 32013KT 10SM BKN020 BKN030 OVC039 12/08 A3038 RMK AO2 SLP292 T01220078
PAPH 192225Z AUTO 30011KT 10SM SCT016 BKN028 OVC036 12/08 A3039 RMK AO2
PAPH 192156Z AUTO 32011KT 10SM BKN014 BKN041 12/08 A3038 RMK AO2 SLP292 T01170083
PAPH 192056Z AUTO 32011KT 10SM BKN010 OVC015 12/09 A3038 RMK AO2 CIG 009V013 SLP292 T01170089 58004
PAPH 191956Z AUTO 30010KT 10SM BKN010 BKN033 12/09 A3039 RMK AO2 SLP296 T01220094
PAPH 191952Z AUTO 30009KT 10SM BKN010 12/09 A3039 RMK AO2
PAPH 191945Z AUTO 30009KT 10SM SCT012 12/09 A3040 RMK AO2
PAPH 191936Z AUTO 29010KT 10SM BKN012 BKN029 BKN035 11/09 A3040 RMK AO2
PAPH 191856Z AUTO 31010KT 10SM FEW010 SCT039 12/09 A3039 RMK AO2 SLP296 T01170094
PAPH 191848Z AUTO 30009KT 10SM FEW010 SCT026 BKN039 11/09 A3040 RMK AO2
PAPH 191841Z AUTO 30010KT 10SM SCT010 BKN025 OVC039 11/09 A3040 RMK AO2
PAPH 191756Z AUTO 28009KT 10SM BKN010 BKN016 OVC039 11/09 A3040 RMK AO2 CIG 009V013 SLP297 T01060089 10111 20083 53004
PAPH 191656Z AUTO 27006KT 10SM BKN010 BKN017 OVC035 11/09 A3039 RMK AO2 SLP296 T01060094
PAPH 191634Z AUTO 27006KT 10SM BKN011 OVC035 10/09 A3039 RMK AO2
PAPH 191556Z AUTO 28006KT 10SM BKN009 OVC013 09/08 A3038 RMK AO2 CIG 008V012 SLP292 T00940083
PAPH 191456Z AUTO 28007KT 10SM BKN011 09/08 A3039 RMK AO2 SLP293 T00940083 53005
PAPH 191443Z AUTO 28006KT 10SM BKN011 10/09 A3038 RMK AO2
PAPH 191356Z AUTO 28006KT 10SM OVC009 09/09 A3038 RMK AO2 SLP291 T00940089
PAPH 191256Z AUTO 00000KT 10SM BKN009 BKN045 08/08 A3037 RMK AO2 SLP289 T00830078
PAPH 191223Z AUTO 30003KT 10SM FEW009 BKN045 09/08 A3037 RMK AO2
PAPH 191156Z AUTO 30005KT 10SM OVC045 10/09 A3037 RMK AO2 SLP288 T01000089 10106 20089 50002
PAPH 191133Z AUTO 31006KT 10SM SCT010 OVC045 10/09 A3037 RMK AO2
PAPH 191112Z AUTO 30008KT 10SM BKN010 OVC045 11/09 A3037 RMK AO2
PAPH 191056Z AUTO 29005KT 10SM BKN045 09/08 A3037 RMK AO2 SLP288 T00940083
PAPH 190956Z AUTO 29005KT 10SM BKN045 10/09 A3037 RMK AO2 SLP287 T01000089
PAPH 190856Z AUTO 28006KT 10SM FEW010 OVC047 09/09 A3037 RMK AO2 SLP286 T00940089 51005
PAPH 190756Z AUTO 28006KT 10SM CLR 09/08 A3036 RMK AO2 SLP285 T00890078 401280089
PAPH 190656Z AUTO 30007KT 10SM SCT012 SCT036 BKN050 10/08 A3036 RMK AO2 SLP284 T01000083
PAPH 190637Z AUTO 30006KT 10SM SCT012 SCT035 09/08 A3035 RMK AO2
PAPH 190556Z AUTO 29007KT 10SM OVC012 11/09 A3035 RMK AO2 SLP281 T01060089 10128 20106 53007
PAPH 190510Z AUTO 29007KT 10SM BKN012 BKN022 OVC030 11/09 A3034 RMK AO2
PAPH 190456Z AUTO 29007KT 10SM FEW010 BKN015 OVC028 11/09 A3034 RMK AO2 SLP276 T01060089
PAPH 190356Z AUTO 30007KT 10SM SCT013 BKN021 11/08 A3033 RMK AO2 SLP275 T01110083
PAPH 190318Z AUTO 29008KT 10SM BKN015 BKN021 12/08 A3033 RMK AO2
PAPH 190256Z AUTO 28009KT 10SM BKN013 BKN019 12/08 A3033 RMK AO2 SLP273 T01170083 53001
PAPH 190156Z AUTO 30011KT 10SM BKN011 BKN019 12/09 A3032 RMK AO2 SLP272 T01170089
PAPH 190147Z AUTO 30009KT 10SM BKN011 BKN085 12/09 A3033 RMK AO2
PAPH 190117Z AUTO 28010KT 10SM SCT011 OVC085 12/09 A3033 RMK AO2
PAPH 190056Z AUTO 28012KT 10SM BKN013 OVC085 12/09 A3033 RMK AO2 SLP272 T01220089
PAPH 190015Z AUTO 28013KT 10SM SCT013 OVC085 12/09 A3032 RMK AO2
PAPH 182356Z AUTO 28011KT 10SM BKN013 OVC085 13/09 A3032 RMK AO2 SLP272 T01280094 10128 20106 51001
PAPH 182353Z AUTO 29010KT 10SM SCT013 OVC085 13/09 A3032 RMK AO2
PAPH 182256Z AUTO 30009KT 10SM OVC013 13/09 A3033 RMK AO2 SLP273 T01280089
PAPH 182156Z AUTO 30010KT 10SM BKN013 BKN022 OVC036 12/09 A3032 RMK AO2 SLP271 T01170089
PAPH 182056Z AUTO 31011KT 10SM OVC011 12/09 A3031 RMK AO2 CIG 010V014 SLP269 T01170094 52005